Weather at Pirot Stadium Heliport

Public forecast

Using degrees Celsius for public forecast. Weather courtesy of forecast.io.

Closest aviation weather report (METAR) to Pirot Stadium Heliport

Closest report is Niš Constantine the Great Airport, 34.5 nm (63.9 km) WNW.

2024/05/20 17:00 (retrieved 39 minutes ago)

LYNI 201700Z 06007KT 9999 FEW040 23/17 Q1013 NOSIG

Closest aviation forecast (TAF) to Pirot Stadium Heliport

Closest forecast is Niš Constantine the Great Airport, 34.5 nm (63.9 km) WNW.

2024/05/20 12:21 (retrieved 5 hours ago)

TAF LYNI 201100Z 2012/2112 10006KT 9999 SCT030 TX25/2014Z TN15/2103Z TEMPO 2107/2112 12016KT